ADDS METAR Data INFO
IDs: Format: Raw Decoded Include TAF

Data at: 0706 UTC 19 Oct 2017

K42J 190655Z AUTO 36004KT 2 1/2SM SCT002 OVC006 19/19 A3014 RMK AO1 TSNO
K42J 190635Z AUTO 02006KT 3SM FEW001 OVC006 19/19 A3015 RMK AO1 TSNO
K42J 190615Z AUTO 36003KT 3SM BKN006 BKN015 19/19 A3015 RMK AO1 TSNO
K42J 190555Z AUTO 01006KT 5SM SCT015 BKN022 BKN050 20/20 A3015 RMK AO1 TSNO
K42J 190535Z AUTO 03007KT 5SM FEW021 FEW047 BKN060 19/19 A3016 RMK AO1 TSNO
K42J 190515Z AUTO 01004KT 4SM FEW060 19/19 A3016 RMK AO1 TSNO
K42J 190455Z AUTO 01005KT 4SM FEW010 19/19 A3017 RMK AO1 TSNO
K42J 190435Z AUTO 01004KT 5SM FEW010 19/19 A3018 RMK AO1 TSNO
K42J 190415Z AUTO 01003KT 5SM SCT017 SCT025 BKN038 20/19 A3018 RMK AO1 TSNO
K42J 190355Z AUTO 02005KT 5SM FEW013 BKN025 BKN038 20/19 A3019 RMK AO1 TSNO
K42J 190335Z AUTO 02004KT 7SM FEW002 FEW011 BKN018 20/19 A3019 RMK AO1 TSNO
K42J 190315Z AUTO 01005KT 6SM FEW002 SCT016 BKN029 20/19 A3019 RMK AO1 TSNO
K42J 190255Z AUTO 02005KT 8SM FEW044 20/19 A3019 RMK AO1 TSNO
K42J 190235Z AUTO 01005KT 6SM CLR 21/19 A3018 RMK AO1 TSNO
K42J 190215Z AUTO 02007KT 9SM FEW044 21/19 A3018 RMK AO1 TSNO
K42J 190155Z AUTO 03006KT 10SM FEW044 21/19 A3018 RMK AO1 TSNO
K42J 190135Z AUTO 03007KT 10SM CLR 21/19 A3018 RMK AO1 TSNO
K42J 190115Z AUTO 04007KT 10SM FEW022 22/19 A3018 RMK AO1 TSNO
K42J 190055Z AUTO 03007KT 10SM FEW022 SCT044 22/19 A3017 RMK AO1 TSNO
K42J 190035Z AUTO 04006KT 10SM SCT044 22/19 A3018 RMK AO1 TSNO
K42J 190015Z AUTO 04010KT 10SM FEW050 22/19 A3017 RMK AO1 TSNO
K42J 182355Z AUTO 04009KT 10SM BKN050 23/19 A3017 RMK AO1 TSNO
K42J 182335Z AUTO 04007KT 10SM BKN050 23/19 A3016 RMK AO1 TSNO
K42J 182315Z AUTO 04005KT 9SM FEW043 SCT055 23/19 A3016 RMK AO1 TSNO
K42J 182255Z AUTO 05006KT 9SM FEW027 SCT041 SCT049 23/19 A3015 RMK AO1 TSNO
K42J 182235Z AUTO 05007KT 10SM FEW027 SCT049 23/19 A3015 RMK AO1 TSNO
K42J 182215Z AUTO 04011KT 10SM CLR 24/18 A3015 RMK AO1 TSNO
K42J 182155Z AUTO 05010G16KT 9SM CLR 25/18 A3015 RMK AO1 TSNO
K42J 182135Z AUTO 06009G16KT 10SM FEW029 26/18 A3015 RMK AO1 TSNO
K42J 182115Z AUTO 06013G16KT 10SM CLR 26/17 A3014 RMK AO1 TSNO
K42J 182055Z AUTO 06010G16KT 10SM FEW033 26/17 A3014 RMK AO1 TSNO
K42J 182035Z AUTO 05010G17KT 9SM CLR 27/17 A3014 RMK AO1 TSNO
K42J 182015Z AUTO 05014G18KT 10SM FEW044 FEW050 27/16 A3013 RMK AO1 TSNO
K42J 181955Z AUTO 06012KT 10SM CLR 27/14 A3013 RMK AO1 TSNO
K42J 181935Z AUTO 06012G16KT 10SM CLR 27/14 A3014 RMK AO1 TSNO
K42J 181915Z AUTO 08011G16KT 10SM FEW044 27/15 A3014 RMK AO1 TSNO
K42J 181855Z AUTO 07010G17KT 9SM FEW042 27/15 A3014 RMK AO1 TSNO
K42J 181835Z AUTO 06012KT 9SM SCT042 SCT060 BKN085 28/16 A3015 RMK AO1 TSNO
K42J 181815Z AUTO 08011G19KT 10SM FEW037 FEW060 SCT095 27/17 A3015 RMK AO1 TSNO
K42J 181755Z AUTO 05012KT 9SM FEW041 26/18 A3016 RMK AO1 TSNO
K42J 181735Z AUTO 06010G19KT 9SM FEW035 SCT044 27/18 A3016 RMK AO1 TSNO
K42J 181715Z AUTO 07012G18KT 9SM SCT035 SCT044 26/18 A3017 RMK AO1 TSNO
K42J 181655Z AUTO 06012G18KT 10SM FEW033 FEW041 27/19 A3017 RMK AO1 TSNO
K42J 181635Z AUTO 05015G19KT 9SM BKN033 BKN041 27/19 A3018 RMK AO1 TSNO
K42J 181615Z AUTO 06010G20KT 9SM SCT029 BKN036 BKN120 26/19 A3018 RMK AO1 TSNO
K42J 181555Z AUTO 07009KT 9SM FEW033 26/20 A3018 RMK AO1 TSNO
K42J 181535Z AUTO 06012G16KT 9SM FEW035 25/19 A3019 RMK AO1 TSNO
K42J 181515Z AUTO 05007KT 9SM FEW028 FEW035 24/19 A3019 RMK AO1 TSNO
K42J 181455Z AUTO 05009G14KT 10SM SCT028 23/18 A3019 RMK AO1 TSNO
K42J 181435Z AUTO 03005KT 9SM FEW028 22/18 A3020 RMK AO1 TSNO
K42J 181415Z AUTO 05009KT 9SM CLR 21/17 A3019 RMK AO1 TSNO
K42J 181355Z AUTO 04009KT 10SM CLR 21/17 A3019 RMK AO1 TSNO
K42J 181335Z AUTO 02008KT 9SM CLR 19/17 A3018 RMK AO1 TSNO
K42J 181315Z AUTO 02006G14KT 9SM CLR 18/16 A3018 RMK AO1 TSNO
K42J 181255Z AUTO 02006KT 10SM CLR 17/16 A3017 RMK AO1 TSNO
K42J 181235Z AUTO 02007KT 9SM CLR 17/15 A3017 RMK AO1 TSNO
K42J 181215Z AUTO 01006KT 10SM CLR 16/15 A3016 RMK AO1 TSNO
K42J 181155Z AUTO 02006KT 10SM CLR 16/15 A3016 RMK AO1 TSNO
K42J 181135Z AUTO 01008KT 10SM CLR 16/15 A3015 RMK AO1 TSNO
K42J 181115Z AUTO 01008KT 10SM CLR 16/14 A3015 RMK AO1 TSNO
K42J 181055Z AUTO 02007KT 10SM CLR 16/14 A3014 RMK AO1 TSNO
K42J 181035Z AUTO 01005KT 10SM CLR 15/14 A3014 RMK AO1 TSNO
K42J 181015Z AUTO 02004KT 10SM CLR 14/14 A3014 RMK AO1 TSNO
K42J 180955Z AUTO 01005KT 10SM CLR 14/14 A3013 RMK AO1 TSNO
K42J 180935Z AUTO 36004KT 10SM CLR 14/14 A3013 RMK AO1 TSNO
K42J 180915Z AUTO 36004KT 10SM CLR 14/14 A3013 RMK AO1 TSNO
K42J 180855Z AUTO 36005KT 10SM CLR 14/14 A3012 RMK AO1 TSNO
K42J 180835Z AUTO 36007KT 10SM CLR 14/14 A3012 RMK AO1 TSNO
K42J 180815Z AUTO 36006KT 10SM CLR 14/14 A3012 RMK AO1 TSNO
K42J 180755Z AUTO 36004KT 10SM CLR 14/14 A3013 RMK AO1 TSNO
K42J 180735Z AUTO 36004KT 10SM CLR 14/14 A3013 RMK AO1 TSNO
K42J 180715Z AUTO 00000KT 10SM CLR 15/14 A3013 RMK AO1 TSNO
K42J 180655Z AUTO 01004KT 10SM CLR 15/14 A3013 RMK AO1 TSNO
K42J 180635Z AUTO 01005KT 10SM CLR 15/14 A3014 RMK AO1 TSNO
K42J 180615Z AUTO 01004KT 10SM CLR 16/14 A3014 RMK AO1 TSNO
K42J 180555Z AUTO 01005KT 10SM CLR 16/14 A3014 RMK AO1 TSNO
K42J 180535Z AUTO 01005KT 10SM CLR 16/14 A3014 RMK AO1 TSNO
K42J 180515Z AUTO 01005KT 10SM CLR 16/14 A3014 RMK AO1 TSNO
K42J 180455Z AUTO 01006KT 10SM CLR 16/15 A3015 RMK AO1 TSNO
K42J 180435Z AUTO 02005KT 10SM CLR 17/15 A3015 RMK AO1 TSNO
K42J 180415Z AUTO 02005KT 10SM CLR 17/15 A3016 RMK AO1 TSNO
K42J 180355Z AUTO 02006KT 10SM CLR 17/15 A3016 RMK AO1 TSNO
K42J 180335Z AUTO 02006KT 10SM CLR 17/15 A3017 RMK AO1 TSNO
K42J 180315Z AUTO 02006KT 10SM CLR 17/15 A3017 RMK AO1 TSNO
K42J 180255Z AUTO 02006KT 10SM CLR 16/14 A3017 RMK AO1 TSNO
K42J 180235Z AUTO 01006KT 10SM CLR 17/14 A3017 RMK AO1 TSNO
K42J 180215Z AUTO 02008KT 10SM CLR 17/14 A3017 RMK AO1 TSNO
K42J 180155Z AUTO 02006KT 10SM CLR 17/15 A3017 RMK AO1 TSNO
K42J 180135Z AUTO 02008KT 10SM CLR 17/15 A3017 RMK AO1 TSNO
K42J 180115Z AUTO 02006KT 10SM CLR 17/15 A3017 RMK AO1 TSNO
K42J 180055Z AUTO 02006KT 10SM CLR 18/15 A3016 RMK AO1 TSNO
K42J 180035Z AUTO 02009G16KT 10SM CLR 18/15 A3016 RMK AO1 TSNO
K42J 180015Z AUTO 03009G15KT 10SM CLR 18/16 A3016 RMK AO1 TSNO
K42J 172355Z AUTO 03010G16KT 10SM CLR 18/16 A3016 RMK AO1 TSNO
K42J 172335Z AUTO 03010KT 10SM FEW034 18/16 A3015 RMK AO1 TSNO
K42J 172315Z AUTO 03009KT 10SM FEW018 SCT032 18/16 A3015 RMK AO1 TSNO
K42J 172255Z AUTO 03007G16KT 10SM SCT018 BKN032 19/16 A3014 RMK AO1 TSNO
K42J 172235Z AUTO 03010KT 10SM BKN018 19/16 A3013 RMK AO1 TSNO
K42J 172215Z AUTO 03012G17KT 10SM OVC018 19/16 A3013 RMK AO1 TSNO
K42J 172155Z AUTO 03008KT 10SM OVC018 20/17 A3012 RMK AO1 TSNO
K42J 172135Z AUTO 03010G14KT 9SM OVC018 20/17 A3013 RMK AO1 TSNO
K42J 172115Z AUTO 03010G16KT 10SM OVC018 20/17 A3012 RMK AO1 TSNO
K42J 172055Z AUTO 05011G16KT 10SM OVC018 21/17 A3012 RMK AO1 TSNO
K42J 172035Z AUTO 04010G15KT 8SM OVC018 21/17 A3012 RMK AO1 TSNO
K42J 172015Z AUTO 03010G16KT 9SM OVC018 21/17 A3013 RMK AO1 TSNO
K42J 171955Z AUTO 04011G16KT 9SM OVC018 21/18 A3012 RMK AO1 TSNO
K42J 171935Z AUTO 03009G14KT 9SM OVC018 21/18 A3012 RMK AO1 TSNO
K42J 171915Z AUTO 03008KT 9SM OVC020 22/18 A3012 RMK AO1 TSNO